Timpas, Colorado
Current Conditions -  °F | °C
As of 9:53 AM on Thursday 27 Nov 2014 (Local Time) from KLHX Reporting Station
Clear Clear  
Wind Chill: 33°   Ceiling: Unl
Heat Index: 37°   Visibility: 10mi
Dew Point: 26°   Wind: 5mph
Humidity: 65%   Direction: 300°WNW
Pressure: 30.28"   Gusts: NA
Location:  37.8368°N, 103.544°W
Report Text: KLHX 271653Z AUTO 30004KT 10SM CLR 03/M03 A3028 RMK AO2 SLP266 T00281033
Loading
Personal Weather Stations






























Interactive Weather Map New forecast layout! Learn more

10-Day Weather Forecast

Advertisements
Track Severe Weather on mobile